sensor_id;sensor_type;location;lat;lon;timestamp;temperature;humidity
3069;DHT22;1545;51.728;8.796;2023-10-09T00:02:02;13.70;98.80
3069;DHT22;1545;51.728;8.796;2023-10-09T00:04:31;13.70;98.80
3069;DHT22;1545;51.728;8.796;2023-10-09T00:06:57;13.70;98.80
3069;DHT22;1545;51.728;8.796;2023-10-09T00:09:24;13.70;98.80
3069;DHT22;1545;51.728;8.796;2023-10-09T00:11:51;13.70;98.80
3069;DHT22;1545;51.728;8.796;2023-10-09T00:14:26;13.80;98.80
3069;DHT22;1545;51.728;8.796;2023-10-09T00:16:52;13.80;98.80
3069;DHT22;1545;51.728;8.796;2023-10-09T00:19:21;13.80;98.80
3069;DHT22;1545;51.728;8.796;2023-10-09T00:21:56;13.80;98.80
3069;DHT22;1545;51.728;8.796;2023-10-09T00:24:22;13.80;98.80
3069;DHT22;1545;51.728;8.796;2023-10-09T00:26:54;13.90;98.80
3069;DHT22;1545;51.728;8.796;2023-10-09T00:29:39;13.90;98.80
3069;DHT22;1545;51.728;8.796;2023-10-09T00:32:12;13.90;98.80
3069;DHT22;1545;51.728;8.796;2023-10-09T00:34:57;14.00;98.80
3069;DHT22;1545;51.728;8.796;2023-10-09T00:37:24;14.00;98.80
3069;DHT22;1545;51.728;8.796;2023-10-09T00:39:52;14.10;98.80
3069;DHT22;1545;51.728;8.796;2023-10-09T00:42:23;14.10;98.80
3069;DHT22;1545;51.728;8.796;2023-10-09T00:45:15;14.10;98.80
3069;DHT22;1545;51.728;8.796;2023-10-09T00:47:52;14.20;98.80
3069;DHT22;1545;51.728;8.796;2023-10-09T00:50:23;14.20;98.80
3069;DHT22;1545;51.728;8.796;2023-10-09T00:52:52;14.20;98.80
3069;DHT22;1545;51.728;8.796;2023-10-09T00:55:20;14.20;98.80
3069;DHT22;1545;51.728;8.796;2023-10-09T00:57:48;14.20;98.80
3069;DHT22;1545;51.728;8.796;2023-10-09T01:00:16;14.20;98.80
3069;DHT22;1545;51.728;8.796;2023-10-09T01:03:01;14.20;98.80
3069;DHT22;1545;51.728;8.796;2023-10-09T01:05:36;14.30;98.80
3069;DHT22;1545;51.728;8.796;2023-10-09T01:08:03;14.20;98.80
3069;DHT22;1545;51.728;8.796;2023-10-09T01:10:45;14.20;98.80
3069;DHT22;1545;51.728;8.796;2023-10-09T01:13:16;14.20;98.80
3069;DHT22;1545;51.728;8.796;2023-10-09T01:15:43;14.40;98.80
3069;DHT22;1545;51.728;8.796;2023-10-09T01:18:10;14.50;98.80
3069;DHT22;1545;51.728;8.796;2023-10-09T01:20:36;14.50;98.80
3069;DHT22;1545;51.728;8.796;2023-10-09T01:23:09;14.50;98.80
3069;DHT22;1545;51.728;8.796;2023-10-09T01:25:35;14.60;98.80
3069;DHT22;1545;51.728;8.796;2023-10-09T01:28:07;14.50;98.80
3069;DHT22;1545;51.728;8.796;2023-10-09T01:30:33;14.50;98.80
3069;DHT22;1545;51.728;8.796;2023-10-09T01:32:58;14.50;98.80
3069;DHT22;1545;51.728;8.796;2023-10-09T01:35:37;14.50;98.80
3069;DHT22;1545;51.728;8.796;2023-10-09T01:38:11;14.60;98.80
3069;DHT22;1545;51.728;8.796;2023-10-09T01:40:39;14.60;98.80
3069;DHT22;1545;51.728;8.796;2023-10-09T01:43:05;14.60;98.80
3069;DHT22;1545;51.728;8.796;2023-10-09T01:45:35;14.60;98.80
3069;DHT22;1545;51.728;8.796;2023-10-09T01:48:07;14.60;98.80
3069;DHT22;1545;51.728;8.796;2023-10-09T01:50:34;14.60;98.80
3069;DHT22;1545;51.728;8.796;2023-10-09T01:53:04;14.70;98.80
3069;DHT22;1545;51.728;8.796;2023-10-09T01:55:34;14.70;98.80
3069;DHT22;1545;51.728;8.796;2023-10-09T01:58:00;14.70;98.80
3069;DHT22;1545;51.728;8.796;2023-10-09T02:00:31;14.80;98.80
3069;DHT22;1545;51.728;8.796;2023-10-09T02:03:00;14.80;98.80
3069;DHT22;1545;51.728;8.796;2023-10-09T02:05:31;14.90;98.80
3069;DHT22;1545;51.728;8.796;2023-10-09T02:08:01;15.00;98.80
3069;DHT22;1545;51.728;8.796;2023-10-09T02:10:29;15.10;98.80
3069;DHT22;1545;51.728;8.796;2023-10-09T02:13:02;15.20;98.80
3069;DHT22;1545;51.728;8.796;2023-10-09T02:15:39;15.30;98.80
3069;DHT22;1545;51.728;8.796;2023-10-09T02:18:14;15.40;98.80
3069;DHT22;1545;51.728;8.796;2023-10-09T02:20:50;15.40;98.80
3069;DHT22;1545;51.728;8.796;2023-10-09T02:23:21;15.50;98.80
3069;DHT22;1545;51.728;8.796;2023-10-09T02:25:59;15.60;98.80
3069;DHT22;1545;51.728;8.796;2023-10-09T02:28:31;15.80;98.80
3069;DHT22;1545;51.728;8.796;2023-10-09T02:30:59;15.80;98.80
3069;DHT22;1545;51.728;8.796;2023-10-09T02:33:35;15.80;98.80
3069;DHT22;1545;51.728;8.796;2023-10-09T02:36:02;15.90;98.80
3069;DHT22;1545;51.728;8.796;2023-10-09T02:38:31;15.90;98.80
3069;DHT22;1545;51.728;8.796;2023-10-09T02:40:59;16.00;98.60
3069;DHT22;1545;51.728;8.796;2023-10-09T02:43:32;16.00;98.30
3069;DHT22;1545;51.728;8.796;2023-10-09T02:46:14;16.00;98.20
3069;DHT22;1545;51.728;8.796;2023-10-09T02:48:44;16.00;98.10
3069;DHT22;1545;51.728;8.796;2023-10-09T02:51:23;16.00;98.20
3069;DHT22;1545;51.728;8.796;2023-10-09T02:53:49;15.90;98.30
3069;DHT22;1545;51.728;8.796;2023-10-09T02:56:15;15.80;98.50
3069;DHT22;1545;51.728;8.796;2023-10-09T02:58:43;15.80;98.70
3069;DHT22;1545;51.728;8.796;2023-10-09T03:01:12;15.70;98.80
3069;DHT22;1545;51.728;8.796;2023-10-09T03:03:41;15.70;98.80
3069;DHT22;1545;51.728;8.796;2023-10-09T03:06:11;15.70;98.80
3069;DHT22;1545;51.728;8.796;2023-10-09T03:08:38;15.70;98.80
3069;DHT22;1545;51.728;8.796;2023-10-09T03:11:07;15.60;98.80
3069;DHT22;1545;51.728;8.796;2023-10-09T03:13:41;15.70;98.80
3069;DHT22;1545;51.728;8.796;2023-10-09T03:16:11;15.70;98.80
3069;DHT22;1545;51.728;8.796;2023-10-09T03:18:41;15.70;98.80
3069;DHT22;1545;51.728;8.796;2023-10-09T03:21:07;15.80;98.80
3069;DHT22;1545;51.728;8.796;2023-10-09T03:23:34;15.70;98.80
3069;DHT22;1545;51.728;8.796;2023-10-09T03:25:59;15.70;98.80
3069;DHT22;1545;51.728;8.796;2023-10-09T03:28:25;15.70;98.80
3069;DHT22;1545;51.728;8.796;2023-10-09T03:30:50;15.60;98.80
3069;DHT22;1545;51.728;8.796;2023-10-09T03:33:17;15.60;98.80
3069;DHT22;1545;51.728;8.796;2023-10-09T03:35:43;15.60;98.80
3069;DHT22;1545;51.728;8.796;2023-10-09T03:38:08;15.60;98.80
3069;DHT22;1545;51.728;8.796;2023-10-09T03:40:42;15.50;98.80
3069;DHT22;1545;51.728;8.796;2023-10-09T03:43:11;15.50;98.80
3069;DHT22;1545;51.728;8.796;2023-10-09T03:45:37;15.50;98.80
3069;DHT22;1545;51.728;8.796;2023-10-09T03:48:04;15.50;98.80
3069;DHT22;1545;51.728;8.796;2023-10-09T03:50:48;15.50;98.80
3069;DHT22;1545;51.728;8.796;2023-10-09T03:53:20;15.50;98.80
3069;DHT22;1545;51.728;8.796;2023-10-09T03:55:46;15.50;98.80
3069;DHT22;1545;51.728;8.796;2023-10-09T03:58:11;15.50;98.80
3069;DHT22;1545;51.728;8.796;2023-10-09T04:00:37;15.40;98.80
3069;DHT22;1545;51.728;8.796;2023-10-09T04:03:15;15.40;98.80
3069;DHT22;1545;51.728;8.796;2023-10-09T04:05:41;15.40;98.80
3069;DHT22;1545;51.728;8.796;2023-10-09T04:08:12;15.50;98.80
3069;DHT22;1545;51.728;8.796;2023-10-09T04:10:39;15.40;98.80
3069;DHT22;1545;51.728;8.796;2023-10-09T04:13:20;15.50;98.80
3069;DHT22;1545;51.728;8.796;2023-10-09T04:15:50;15.50;98.80
3069;DHT22;1545;51.728;8.796;2023-10-09T04:18:17;15.50;98.80
3069;DHT22;1545;51.728;8.796;2023-10-09T04:20:43;15.50;98.80
3069;DHT22;1545;51.728;8.796;2023-10-09T04:23:41;15.50;98.80
3069;DHT22;1545;51.728;8.796;2023-10-09T04:26:25;15.40;98.80
3069;DHT22;1545;51.728;8.796;2023-10-09T04:28:51;15.30;98.80
3069;DHT22;1545;51.728;8.796;2023-10-09T04:31:19;15.20;98.80
3069;DHT22;1545;51.728;8.796;2023-10-09T04:33:47;15.10;98.80
3069;DHT22;1545;51.728;8.796;2023-10-09T04:36:41;15.10;98.80
3069;DHT22;1545;51.728;8.796;2023-10-09T04:39:15;15.10;98.80
3069;DHT22;1545;51.728;8.796;2023-10-09T04:41:58;15.10;98.80
3069;DHT22;1545;51.728;8.796;2023-10-09T04:44:43;15.10;98.80
3069;DHT22;1545;51.728;8.796;2023-10-09T04:47:34;15.10;98.80
3069;DHT22;1545;51.728;8.796;2023-10-09T04:50:07;15.10;98.80
3069;DHT22;1545;51.728;8.796;2023-10-09T04:52:40;15.20;98.80
3069;DHT22;1545;51.728;8.796;2023-10-09T04:55:08;15.20;98.80
3069;DHT22;1545;51.728;8.796;2023-10-09T04:57:40;15.30;98.80
3069;DHT22;1545;51.728;8.796;2023-10-09T05:00:10;15.40;98.80
3069;DHT22;1545;51.728;8.796;2023-10-09T05:03:03;15.50;98.80
3069;DHT22;1545;51.728;8.796;2023-10-09T05:05:39;15.60;98.80
3069;DHT22;1545;51.728;8.796;2023-10-09T05:08:12;15.70;98.80
3069;DHT22;1545;51.728;8.796;2023-10-09T05:16:08;15.80;98.50
3069;DHT22;1545;51.728;8.796;2023-10-09T05:18:41;16.00;98.00
3069;DHT22;1545;51.728;8.796;2023-10-09T05:21:07;16.00;97.50
3069;DHT22;1545;51.728;8.796;2023-10-09T05:23:41;16.10;97.50
3069;DHT22;1545;51.728;8.796;2023-10-09T05:26:15;16.10;97.00
3069;DHT22;1545;51.728;8.796;2023-10-09T05:28:59;16.10;96.80
3069;DHT22;1545;51.728;8.796;2023-10-09T05:31:25;16.10;96.40
3069;DHT22;1545;51.728;8.796;2023-10-09T05:34:09;16.20;96.10
3069;DHT22;1545;51.728;8.796;2023-10-09T05:36:37;16.20;95.60
3069;DHT22;1545;51.728;8.796;2023-10-09T05:39:03;16.20;95.70
3069;DHT22;1545;51.728;8.796;2023-10-09T05:42:03;16.20;96.30
3069;DHT22;1545;51.728;8.796;2023-10-09T05:44:35;16.10;96.80
3069;DHT22;1545;51.728;8.796;2023-10-09T05:47:19;16.00;97.10
3069;DHT22;1545;51.728;8.796;2023-10-09T05:49:59;15.90;97.30
3069;DHT22;1545;51.728;8.796;2023-10-09T05:52:34;15.90;97.60
3069;DHT22;1545;51.728;8.796;2023-10-09T05:55:08;15.90;97.80
3069;DHT22;1545;51.728;8.796;2023-10-09T05:57:46;15.80;98.10
3069;DHT22;1545;51.728;8.796;2023-10-09T06:00:30;15.80;97.80
3069;DHT22;1545;51.728;8.796;2023-10-09T06:03:34;15.80;98.00
3069;DHT22;1545;51.728;8.796;2023-10-09T06:06:19;15.60;98.80
3069;DHT22;1545;51.728;8.796;2023-10-09T06:09:05;15.50;98.80
3069;DHT22;1545;51.728;8.796;2023-10-09T06:11:43;15.20;98.80
3069;DHT22;1545;51.728;8.796;2023-10-09T06:14:18;15.40;98.80
3069;DHT22;1545;51.728;8.796;2023-10-09T06:16:53;15.20;98.80
3069;DHT22;1545;51.728;8.796;2023-10-09T06:19:22;15.30;98.80
3069;DHT22;1545;51.728;8.796;2023-10-09T06:21:49;15.40;98.80
3069;DHT22;1545;51.728;8.796;2023-10-09T06:24:17;15.30;98.80
3069;DHT22;1545;51.728;8.796;2023-10-09T06:26:44;15.40;98.80
3069;DHT22;1545;51.728;8.796;2023-10-09T06:29:29;15.40;98.80
3069;DHT22;1545;51.728;8.796;2023-10-09T06:32:07;15.40;98.80
3069;DHT22;1545;51.728;8.796;2023-10-09T06:35:00;15.50;98.80
3069;DHT22;1545;51.728;8.796;2023-10-09T06:37:43;15.60;98.80
3069;DHT22;1545;51.728;8.796;2023-10-09T06:40:39;15.60;98.80
3069;DHT22;1545;51.728;8.796;2023-10-09T06:43:17;15.70;98.80
3069;DHT22;1545;51.728;8.796;2023-10-09T06:45:56;15.70;98.80
3069;DHT22;1545;51.728;8.796;2023-10-09T06:48:40;15.80;98.80
3069;DHT22;1545;51.728;8.796;2023-10-09T06:51:10;15.90;98.80
3069;DHT22;1545;51.728;8.796;2023-10-09T06:53:52;15.90;98.80
3069;DHT22;1545;51.728;8.796;2023-10-09T06:56:24;15.90;98.80
3069;DHT22;1545;51.728;8.796;2023-10-09T06:59:10;15.90;98.80
3069;DHT22;1545;51.728;8.796;2023-10-09T07:01:46;15.90;98.80
3069;DHT22;1545;51.728;8.796;2023-10-09T07:04:16;15.90;98.80
3069;DHT22;1545;51.728;8.796;2023-10-09T07:06:45;15.90;98.80
3069;DHT22;1545;51.728;8.796;2023-10-09T07:09:12;15.90;98.80
3069;DHT22;1545;51.728;8.796;2023-10-09T07:11:39;15.90;98.80
3069;DHT22;1545;51.728;8.796;2023-10-09T07:14:06;16.00;98.80
3069;DHT22;1545;51.728;8.796;2023-10-09T07:16:35;16.00;98.80
3069;DHT22;1545;51.728;8.796;2023-10-09T07:19:06;16.10;98.80
3069;DHT22;1545;51.728;8.796;2023-10-09T07:21:38;16.10;98.80
3069;DHT22;1545;51.728;8.796;2023-10-09T07:24:05;16.10;98.80
3069;DHT22;1545;51.728;8.796;2023-10-09T07:26:40;16.10;98.80
3069;DHT22;1545;51.728;8.796;2023-10-09T07:29:13;16.20;98.80
3069;DHT22;1545;51.728;8.796;2023-10-09T07:31:42;16.20;98.60
3069;DHT22;1545;51.728;8.796;2023-10-09T07:34:11;16.30;98.60
3069;DHT22;1545;51.728;8.796;2023-10-09T07:36:55;16.30;98.70
3069;DHT22;1545;51.728;8.796;2023-10-09T07:39:30;16.30;98.60
3069;DHT22;1545;51.728;8.796;2023-10-09T07:42:03;16.40;98.70
3069;DHT22;1545;51.728;8.796;2023-10-09T07:44:41;16.40;98.70
3069;DHT22;1545;51.728;8.796;2023-10-09T07:47:12;16.50;98.50
3069;DHT22;1545;51.728;8.796;2023-10-09T07:49:48;16.60;98.30
3069;DHT22;1545;51.728;8.796;2023-10-09T07:52:18;16.60;98.20
3069;DHT22;1545;51.728;8.796;2023-10-09T07:54:47;16.70;98.50
3069;DHT22;1545;51.728;8.796;2023-10-09T07:57:19;16.80;98.10
3069;DHT22;1545;51.728;8.796;2023-10-09T07:59:51;16.90;97.70
3069;DHT22;1545;51.728;8.796;2023-10-09T08:02:38;17.00;97.30
3069;DHT22;1545;51.728;8.796;2023-10-09T08:05:04;17.10;96.90
3069;DHT22;1545;51.728;8.796;2023-10-09T08:07:45;17.20;95.90
3069;DHT22;1545;51.728;8.796;2023-10-09T08:10:20;17.20;95.40
3069;DHT22;1545;51.728;8.796;2023-10-09T08:12:46;17.20;95.20
3069;DHT22;1545;51.728;8.796;2023-10-09T08:15:15;17.20;95.20
3069;DHT22;1545;51.728;8.796;2023-10-09T08:17:57;17.20;95.50
3069;DHT22;1545;51.728;8.796;2023-10-09T08:20:29;17.20;95.50
3069;DHT22;1545;51.728;8.796;2023-10-09T08:23:15;17.30;95.20
3069;DHT22;1545;51.728;8.796;2023-10-09T08:26:14;17.30;95.20
3069;DHT22;1545;51.728;8.796;2023-10-09T08:28:40;17.40;94.40
3069;DHT22;1545;51.728;8.796;2023-10-09T08:31:15;17.50;94.00
3069;DHT22;1545;51.728;8.796;2023-10-09T08:34:16;17.60;93.60
3069;DHT22;1545;51.728;8.796;2023-10-09T08:36:52;17.70;93.20
3069;DHT22;1545;51.728;8.796;2023-10-09T08:39:19;17.70;93.30
3069;DHT22;1545;51.728;8.796;2023-10-09T08:41:58;17.70;93.20
3069;DHT22;1545;51.728;8.796;2023-10-09T08:44:25;17.80;92.60
3069;DHT22;1545;51.728;8.796;2023-10-09T08:46:54;17.80;92.10
3069;DHT22;1545;51.728;8.796;2023-10-09T08:49:20;17.70;92.60
3069;DHT22;1545;51.728;8.796;2023-10-09T08:51:49;17.70;92.60
3069;DHT22;1545;51.728;8.796;2023-10-09T08:54:18;17.70;92.40
3069;DHT22;1545;51.728;8.796;2023-10-09T08:56:45;17.70;93.00
3069;DHT22;1545;51.728;8.796;2023-10-09T08:59:18;17.80;93.10
3069;DHT22;1545;51.728;8.796;2023-10-09T09:01:48;17.70;93.10
3069;DHT22;1545;51.728;8.796;2023-10-09T09:04:40;17.80;93.50
3069;DHT22;1545;51.728;8.796;2023-10-09T09:07:28;17.80;93.40
3069;DHT22;1545;51.728;8.796;2023-10-09T09:09:57;17.80;93.30
3069;DHT22;1545;51.728;8.796;2023-10-09T09:12:27;17.80;93.40
3069;DHT22;1545;51.728;8.796;2023-10-09T09:14:56;17.70;93.40
3069;DHT22;1545;51.728;8.796;2023-10-09T09:17:23;17.80;93.50
3069;DHT22;1545;51.728;8.796;2023-10-09T09:19:55;17.80;93.30
3069;DHT22;1545;51.728;8.796;2023-10-09T09:22:23;17.90;93.90
3069;DHT22;1545;51.728;8.796;2023-10-09T09:24:58;17.90;93.60
3069;DHT22;1545;51.728;8.796;2023-10-09T09:27:44;17.90;93.20
3069;DHT22;1545;51.728;8.796;2023-10-09T09:30:28;18.00;93.40
3069;DHT22;1545;51.728;8.796;2023-10-09T09:33:20;18.10;92.60
3069;DHT22;1545;51.728;8.796;2023-10-09T09:35:59;18.10;93.00
3069;DHT22;1545;51.728;8.796;2023-10-09T09:38:28;18.20;92.60
3069;DHT22;1545;51.728;8.796;2023-10-09T09:40:57;18.20;92.60
3069;DHT22;1545;51.728;8.796;2023-10-09T09:43:23;18.30;92.90
3069;DHT22;1545;51.728;8.796;2023-10-09T09:45:52;18.40;92.30
3069;DHT22;1545;51.728;8.796;2023-10-09T09:48:19;18.50;92.20
3069;DHT22;1545;51.728;8.796;2023-10-09T09:50:44;18.60;91.90
3069;DHT22;1545;51.728;8.796;2023-10-09T09:53:14;18.70;91.00
3069;DHT22;1545;51.728;8.796;2023-10-09T09:55:51;18.80;90.60
3069;DHT22;1545;51.728;8.796;2023-10-09T09:58:23;18.90;90.60
3069;DHT22;1545;51.728;8.796;2023-10-09T10:00:58;19.10;90.40
3069;DHT22;1545;51.728;8.796;2023-10-09T10:03:32;19.20;89.70
3069;DHT22;1545;51.728;8.796;2023-10-09T10:06:00;19.30;89.60
3069;DHT22;1545;51.728;8.796;2023-10-09T10:08:35;19.30;89.30
3069;DHT22;1545;51.728;8.796;2023-10-09T10:11:00;19.40;88.60
3069;DHT22;1545;51.728;8.796;2023-10-09T10:16:11;19.50;88.40
3069;DHT22;1545;51.728;8.796;2023-10-09T10:21:35;19.60;87.50
3069;DHT22;1545;51.728;8.796;2023-10-09T10:35:21;19.60;87.20
3069;DHT22;1545;51.728;8.796;2023-10-09T10:38:27;19.60;87.00
3069;DHT22;1545;51.728;8.796;2023-10-09T10:41:28;19.70;87.40
3069;DHT22;1545;51.728;8.796;2023-10-09T10:43:56;19.70;87.40
3069;DHT22;1545;51.728;8.796;2023-10-09T10:46:26;19.80;87.10
3069;DHT22;1545;51.728;8.796;2023-10-09T10:48:55;20.00;87.30
3069;DHT22;1545;51.728;8.796;2023-10-09T10:51:41;20.10;86.70
3069;DHT22;1545;51.728;8.796;2023-10-09T10:54:23;20.30;86.10
3069;DHT22;1545;51.728;8.796;2023-10-09T10:57:21;20.20;86.40
3069;DHT22;1545;51.728;8.796;2023-10-09T11:00:10;20.30;86.10
3069;DHT22;1545;51.728;8.796;2023-10-09T11:02:59;20.30;86.50
3069;DHT22;1545;51.728;8.796;2023-10-09T11:05:41;20.20;87.10
3069;DHT22;1545;51.728;8.796;2023-10-09T11:08:10;19.90;87.80
3069;DHT22;1545;51.728;8.796;2023-10-09T11:10:36;19.60;88.50
3069;DHT22;1545;51.728;8.796;2023-10-09T11:13:21;19.50;89.10
3069;DHT22;1545;51.728;8.796;2023-10-09T11:15:57;19.40;89.50
3069;DHT22;1545;51.728;8.796;2023-10-09T11:18:41;19.30;90.50
3069;DHT22;1545;51.728;8.796;2023-10-09T11:21:13;19.30;90.60
3069;DHT22;1545;51.728;8.796;2023-10-09T11:23:39;19.30;91.30
3069;DHT22;1545;51.728;8.796;2023-10-09T11:26:18;19.30;91.00
3069;DHT22;1545;51.728;8.796;2023-10-09T11:29:13;19.20;91.60
3069;DHT22;1545;51.728;8.796;2023-10-09T11:32:00;19.00;92.40
3069;DHT22;1545;51.728;8.796;2023-10-09T11:34:27;18.90;92.40
3069;DHT22;1545;51.728;8.796;2023-10-09T11:36:58;18.80;93.10
3069;DHT22;1545;51.728;8.796;2023-10-09T11:39:31;18.70;93.30
3069;DHT22;1545;51.728;8.796;2023-10-09T11:42:01;18.60;93.70
3069;DHT22;1545;51.728;8.796;2023-10-09T11:44:40;18.60;93.00
3069;DHT22;1545;51.728;8.796;2023-10-09T11:47:09;18.60;93.50
3069;DHT22;1545;51.728;8.796;2023-10-09T11:49:55;18.60;93.30
3069;DHT22;1545;51.728;8.796;2023-10-09T11:52:31;18.60;93.50
3069;DHT22;1545;51.728;8.796;2023-10-09T11:55:00;18.70;93.70
3069;DHT22;1545;51.728;8.796;2023-10-09T11:57:26;18.80;93.00
3069;DHT22;1545;51.728;8.796;2023-10-09T11:59:59;18.80;92.80
3069;DHT22;1545;51.728;8.796;2023-10-09T12:02:25;18.90;92.30
3069;DHT22;1545;51.728;8.796;2023-10-09T12:04:51;19.00;92.10
3069;DHT22;1545;51.728;8.796;2023-10-09T12:07:17;19.00;92.30
3069;DHT22;1545;51.728;8.796;2023-10-09T12:09:46;19.00;91.80
3069;DHT22;1545;51.728;8.796;2023-10-09T12:12:13;18.90;92.20
3069;DHT22;1545;51.728;8.796;2023-10-09T12:14:38;18.80;92.20
3069;DHT22;1545;51.728;8.796;2023-10-09T12:17:05;18.90;92.00
3069;DHT22;1545;51.728;8.796;2023-10-09T12:19:35;18.80;92.00
3069;DHT22;1545;51.728;8.796;2023-10-09T12:22:02;18.80;92.20
3069;DHT22;1545;51.728;8.796;2023-10-09T12:24:30;18.80;92.80
3069;DHT22;1545;51.728;8.796;2023-10-09T12:26:56;19.00;91.90
3069;DHT22;1545;51.728;8.796;2023-10-09T12:29:22;19.00;91.70
3069;DHT22;1545;51.728;8.796;2023-10-09T12:31:49;19.00;91.90
3069;DHT22;1545;51.728;8.796;2023-10-09T12:34:26;19.00;92.40
3069;DHT22;1545;51.728;8.796;2023-10-09T12:36:57;19.00;92.10
3069;DHT22;1545;51.728;8.796;2023-10-09T12:39:29;18.80;92.00
3069;DHT22;1545;51.728;8.796;2023-10-09T12:41:59;18.80;92.40
3069;DHT22;1545;51.728;8.796;2023-10-09T12:44:32;18.80;92.40
3069;DHT22;1545;51.728;8.796;2023-10-09T12:46:59;18.90;92.90
3069;DHT22;1545;51.728;8.796;2023-10-09T12:49:29;19.00;92.70
3069;DHT22;1545;51.728;8.796;2023-10-09T12:51:55;18.90;92.60
3069;DHT22;1545;51.728;8.796;2023-10-09T12:54:22;18.80;93.30
3069;DHT22;1545;51.728;8.796;2023-10-09T12:56:52;18.80;93.40
3069;DHT22;1545;51.728;8.796;2023-10-09T12:59:18;18.60;93.60
3069;DHT22;1545;51.728;8.796;2023-10-09T13:01:45;18.50;93.40
3069;DHT22;1545;51.728;8.796;2023-10-09T13:04:12;18.40;93.70
3069;DHT22;1545;51.728;8.796;2023-10-09T13:06:39;18.30;94.50
3069;DHT22;1545;51.728;8.796;2023-10-09T13:09:10;18.20;95.20
3069;DHT22;1545;51.728;8.796;2023-10-09T13:11:35;18.10;95.20
3069;DHT22;1545;51.728;8.796;2023-10-09T13:14:02;18.10;95.70
3069;DHT22;1545;51.728;8.796;2023-10-09T13:16:37;18.10;95.70
3069;DHT22;1545;51.728;8.796;2023-10-09T13:19:02;18.10;95.50
3069;DHT22;1545;51.728;8.796;2023-10-09T13:21:35;18.10;95.80
3069;DHT22;1545;51.728;8.796;2023-10-09T13:24:03;18.10;95.60
3069;DHT22;1545;51.728;8.796;2023-10-09T13:26:29;18.10;95.40
3069;DHT22;1545;51.728;8.796;2023-10-09T13:29:01;18.10;95.20
3069;DHT22;1545;51.728;8.796;2023-10-09T13:31:27;18.20;95.00
3069;DHT22;1545;51.728;8.796;2023-10-09T13:33:53;18.20;94.60
3069;DHT22;1545;51.728;8.796;2023-10-09T13:36:21;18.20;94.80
3069;DHT22;1545;51.728;8.796;2023-10-09T13:39:07;18.10;95.00
3069;DHT22;1545;51.728;8.796;2023-10-09T13:42:11;18.10;94.90
3069;DHT22;1545;51.728;8.796;2023-10-09T13:44:37;18.00;95.20
3069;DHT22;1545;51.728;8.796;2023-10-09T13:47:07;18.00;95.60
3069;DHT22;1545;51.728;8.796;2023-10-09T13:49:34;17.90;95.90
3069;DHT22;1545;51.728;8.796;2023-10-09T13:52:03;17.90;96.20
3069;DHT22;1545;51.728;8.796;2023-10-09T13:54:30;17.90;96.20
3069;DHT22;1545;51.728;8.796;2023-10-09T13:57:01;17.80;96.50
3069;DHT22;1545;51.728;8.796;2023-10-09T13:59:31;17.70;96.70
3069;DHT22;1545;51.728;8.796;2023-10-09T14:01:57;17.70;96.90
3069;DHT22;1545;51.728;8.796;2023-10-09T14:04:25;17.80;97.10
3069;DHT22;1545;51.728;8.796;2023-10-09T14:06:51;17.80;97.20
3069;DHT22;1545;51.728;8.796;2023-10-09T14:09:26;17.80;97.20
3069;DHT22;1545;51.728;8.796;2023-10-09T14:12:04;17.70;97.20
3069;DHT22;1545;51.728;8.796;2023-10-09T14:14:40;17.70;97.20
3069;DHT22;1545;51.728;8.796;2023-10-09T14:17:15;17.80;97.30
3069;DHT22;1545;51.728;8.796;2023-10-09T14:19:47;17.80;97.00
3069;DHT22;1545;51.728;8.796;2023-10-09T14:22:17;17.80;97.00
3069;DHT22;1545;51.728;8.796;2023-10-09T14:24:44;17.80;97.20
3069;DHT22;1545;51.728;8.796;2023-10-09T14:27:15;17.80;97.10
3069;DHT22;1545;51.728;8.796;2023-10-09T14:29:48;17.80;97.20
3069;DHT22;1545;51.728;8.796;2023-10-09T14:32:14;17.80;97.30
3069;DHT22;1545;51.728;8.796;2023-10-09T14:34:40;17.80;97.30
3069;DHT22;1545;51.728;8.796;2023-10-09T14:37:15;17.80;97.30
3069;DHT22;1545;51.728;8.796;2023-10-09T14:39:44;17.80;97.40
3069;DHT22;1545;51.728;8.796;2023-10-09T14:42:14;17.70;97.50
3069;DHT22;1545;51.728;8.796;2023-10-09T14:44:41;17.80;97.60
3069;DHT22;1545;51.728;8.796;2023-10-09T14:47:07;17.80;97.70
3069;DHT22;1545;51.728;8.796;2023-10-09T14:49:33;17.80;97.70
3069;DHT22;1545;51.728;8.796;2023-10-09T14:52:03;17.80;97.40
3069;DHT22;1545;51.728;8.796;2023-10-09T14:54:29;17.80;97.70
3069;DHT22;1545;51.728;8.796;2023-10-09T14:56:54;17.80;97.80
3069;DHT22;1545;51.728;8.796;2023-10-09T14:59:20;17.80;97.60
3069;DHT22;1545;51.728;8.796;2023-10-09T15:01:47;17.80;97.50
3069;DHT22;1545;51.728;8.796;2023-10-09T15:04:15;17.80;97.60
3069;DHT22;1545;51.728;8.796;2023-10-09T15:06:41;17.80;98.00
3069;DHT22;1545;51.728;8.796;2023-10-09T15:09:07;17.70;98.40
3069;DHT22;1545;51.728;8.796;2023-10-09T15:11:48;17.70;98.30
3069;DHT22;1545;51.728;8.796;2023-10-09T15:14:17;17.70;98.30
3069;DHT22;1545;51.728;8.796;2023-10-09T15:16:46;17.80;98.20
3069;DHT22;1545;51.728;8.796;2023-10-09T15:19:12;17.80;98.00
3069;DHT22;1545;51.728;8.796;2023-10-09T15:21:38;17.90;97.80
3069;DHT22;1545;51.728;8.796;2023-10-09T15:24:13;17.90;97.40
3069;DHT22;1545;51.728;8.796;2023-10-09T15:26:41;17.90;97.50
3069;DHT22;1545;51.728;8.796;2023-10-09T15:29:07;17.90;97.30
3069;DHT22;1545;51.728;8.796;2023-10-09T15:31:38;17.90;97.30
3069;DHT22;1545;51.728;8.796;2023-10-09T15:34:05;17.90;97.60
3069;DHT22;1545;51.728;8.796;2023-10-09T15:36:33;17.90;97.50
3069;DHT22;1545;51.728;8.796;2023-10-09T15:39:00;17.90;97.60
3069;DHT22;1545;51.728;8.796;2023-10-09T15:41:27;17.90;97.50
3069;DHT22;1545;51.728;8.796;2023-10-09T15:43:56;17.90;97.50
3069;DHT22;1545;51.728;8.796;2023-10-09T15:46:23;17.90;97.50
3069;DHT22;1545;51.728;8.796;2023-10-09T15:48:48;17.90;97.50
3069;DHT22;1545;51.728;8.796;2023-10-09T15:51:17;17.90;97.40
3069;DHT22;1545;51.728;8.796;2023-10-09T15:53:45;17.90;97.30
3069;DHT22;1545;51.728;8.796;2023-10-09T15:56:12;17.90;97.00
3069;DHT22;1545;51.728;8.796;2023-10-09T15:58:41;17.90;97.00
3069;DHT22;1545;51.728;8.796;2023-10-09T16:01:16;18.00;97.00
3069;DHT22;1545;51.728;8.796;2023-10-09T16:03:44;18.00;96.90
3069;DHT22;1545;51.728;8.796;2023-10-09T16:06:12;18.00;96.70
3069;DHT22;1545;51.728;8.796;2023-10-09T16:08:46;18.00;96.70
3069;DHT22;1545;51.728;8.796;2023-10-09T16:11:17;18.00;96.50
3069;DHT22;1545;51.728;8.796;2023-10-09T16:13:43;17.90;96.70
3069;DHT22;1545;51.728;8.796;2023-10-09T16:16:08;17.90;96.60
3069;DHT22;1545;51.728;8.796;2023-10-09T16:18:35;17.90;96.90
3069;DHT22;1545;51.728;8.796;2023-10-09T16:21:04;17.90;96.90
3069;DHT22;1545;51.728;8.796;2023-10-09T16:23:31;17.90;96.90
3069;DHT22;1545;51.728;8.796;2023-10-09T16:25:57;17.90;97.00
3069;DHT22;1545;51.728;8.796;2023-10-09T16:28:22;17.90;97.20
3069;DHT22;1545;51.728;8.796;2023-10-09T16:30:48;17.80;97.10
3069;DHT22;1545;51.728;8.796;2023-10-09T16:33:13;17.80;97.20
3069;DHT22;1545;51.728;8.796;2023-10-09T16:35:41;17.80;97.20
3069;DHT22;1545;51.728;8.796;2023-10-09T16:38:09;17.80;97.00
3069;DHT22;1545;51.728;8.796;2023-10-09T16:40:38;17.80;96.90
3069;DHT22;1545;51.728;8.796;2023-10-09T16:43:04;17.80;97.10
3069;DHT22;1545;51.728;8.796;2023-10-09T16:45:35;17.80;97.00
3069;DHT22;1545;51.728;8.796;2023-10-09T16:48:01;17.70;97.30
3069;DHT22;1545;51.728;8.796;2023-10-09T16:50:31;17.70;97.30
3069;DHT22;1545;51.728;8.796;2023-10-09T16:52:56;17.80;98.10
3069;DHT22;1545;51.728;8.796;2023-10-09T16:55:22;17.80;97.60
3069;DHT22;1545;51.728;8.796;2023-10-09T16:57:50;17.90;97.50